Time;durP1;ratioP1;P1;durP2;ratioP2;P2;SDS_P1;SDS_P2;PMS_P1;PMS_P2;Temp;Humidity;BMP_temperature;BMP_pressure;BME280_temperature;BME280_humidity;BME280_pressure;Samples;Min_cycle;Max_cycle;Signal;HPM_P1;HPM_P2
2023/09/27 00:00:01;;;;;;;1.33;1.17;;;21.60;51.10;;;;;;5106335;27;45406;-71
2023/09/27 00:02:27;;;;;;;1.23;1.13;;;21.50;51.20;;;;;;5106747;27;45427;-71
2023/09/27 00:04:54;;;;;;;1.50;1.23;;;21.50;51.20;;;;;;5106958;27;45305;-71
2023/09/27 00:07:21;;;;;;;1.55;1.45;;;21.50;51.30;;;;;;5106991;27;45295;-71
2023/09/27 00:09:48;;;;;;;2.30;1.20;;;21.50;51.20;;;;;;5106458;27;46430;-71
2023/09/27 00:12:15;;;;;;;1.40;1.30;;;21.50;51.20;;;;;;5106702;27;45342;-71
2023/09/27 00:14:42;;;;;;;1.40;1.30;;;21.50;51.30;;;;;;5110284;27;45312;-71
2023/09/27 00:17:10;;;;;;;1.67;1.20;;;21.50;51.30;;;;;;5110384;27;45422;-71
2023/09/27 00:19:37;;;;;;;1.60;1.38;;;21.50;51.30;;;;;;5110260;27;45409;-71
2023/09/27 00:22:04;;;;;;;1.20;1.10;;;21.40;51.20;;;;;;5110039;27;45405;-70
2023/09/27 00:24:31;;;;;;;1.40;1.27;;;21.40;51.20;;;;;;5110329;27;45393;-71
2023/09/27 00:26:58;;;;;;;1.88;1.25;;;21.40;51.30;;;;;;5110433;27;45375;-70
2023/09/27 00:29:25;;;;;;;1.85;1.30;;;21.40;51.20;;;;;;5109898;27;45304;-71
2023/09/27 00:31:52;;;;;;;1.15;1.05;;;21.40;51.10;;;;;;5110288;27;45281;-71
2023/09/27 00:34:20;;;;;;;1.50;1.27;;;21.40;51.20;;;;;;5110091;27;45310;-71
2023/09/27 00:36:47;;;;;;;2.05;1.27;;;21.40;51.30;;;;;;5109797;27;45330;-70
2023/09/27 00:39:14;;;;;;;1.42;1.10;;;21.40;51.10;;;;;;5109016;27;46373;-71
2023/09/27 00:41:41;;;;;;;1.42;1.20;;;21.30;51.30;;;;;;5109823;27;45309;-71
2023/09/27 00:44:07;;;;;;;1.33;1.10;;;21.30;51.00;;;;;;5109851;27;45354;-71
2023/09/27 00:46:34;;;;;;;1.30;1.20;;;21.30;51.10;;;;;;5110048;27;45315;-71
2023/09/27 00:49:01;;;;;;;1.23;1.10;;;21.30;51.10;;;;;;5109603;27;46669;-70
2023/09/27 00:51:29;;;;;;;1.20;1.10;;;21.30;51.10;;;;;;5109735;27;45366;-71
2023/09/27 00:53:56;;;;;;;1.20;1.10;;;21.30;51.20;;;;;;5109822;27;45305;-71
2023/09/27 00:56:23;;;;;;;1.40;1.30;;;21.20;51.10;;;;;;5110199;27;45243;-71
2023/09/27 00:58:50;;;;;;;1.30;1.20;;;21.20;51.10;;;;;;5109844;27;45346;-71
2023/09/27 01:01:17;;;;;;;1.20;1.10;;;21.20;51.10;;;;;;5109625;27;45360;-71
2023/09/27 01:03:44;;;;;;;0.98;0.95;;;21.20;51.10;;;;;;5109703;27;45385;-71
2023/09/27 01:06:11;;;;;;;1.20;1.10;;;21.20;51.20;;;;;;5110667;27;45255;-70
2023/09/27 01:08:39;;;;;;;1.75;1.20;;;21.20;51.20;;;;;;5109467;27;46384;-73
2023/09/27 01:11:06;;;;;;;1.20;1.10;;;21.20;51.10;;;;;;5110223;27;45331;-71
2023/09/27 01:13:33;;;;;;;2.05;1.20;;;21.10;51.30;;;;;;5110061;27;45369;-71
2023/09/27 01:16:00;;;;;;;1.67;1.20;;;21.10;51.20;;;;;;5110070;27;45249;-70
2023/09/27 01:18:27;;;;;;;1.27;1.02;;;21.10;51.30;;;;;;5109062;27;46691;-71
2023/09/27 01:20:54;;;;;;;1.02;0.90;;;21.10;51.20;;;;;;5108968;27;45502;-71
2023/09/27 01:23:22;;;;;;;1.50;1.30;;;21.10;51.30;;;;;;5108704;27;45287;-71
2023/09/27 01:25:51;;;;;;;1.75;1.25;;;21.10;51.20;;;;;;5109998;27;45291;-71
2023/09/27 01:28:21;;;;;;;1.73;1.20;;;21.10;51.40;;;;;;5109114;27;45313;-71
2023/09/27 01:30:48;;;;;;;1.30;1.20;;;21.10;51.30;;;;;;5109241;27;45290;-71
2023/09/27 01:33:15;;;;;;;2.17;1.15;;;21.00;51.30;;;;;;5109325;27;45326;-71
2023/09/27 01:35:43;;;;;;;1.30;1.20;;;21.00;51.20;;;;;;5109149;27;45306;-71
2023/09/27 01:38:10;;;;;;;1.20;1.02;;;21.00;51.30;;;;;;5108810;27;45438;-71
2023/09/27 01:40:40;;;;;;;1.30;1.20;;;21.00;51.30;;;;;;5108934;27;45513;-71
2023/09/27 01:43:07;;;;;;;1.35;1.20;;;21.00;51.40;;;;;;5109072;27;45297;-70
2023/09/27 01:45:33;;;;;;;1.80;1.10;;;21.00;51.40;;;;;;5109122;27;45433;-71
2023/09/27 01:48:01;;;;;;;2.13;1.10;;;20.90;51.20;;;;;;5109052;27;45442;-71
2023/09/27 01:50:28;;;;;;;1.20;1.20;;;20.90;51.30;;;;;;5108861;27;45443;-71
2023/09/27 01:52:55;;;;;;;1.42;1.00;;;20.90;51.40;;;;;;5108776;27;45318;-71
2023/09/27 01:55:22;;;;;;;1.17;1.08;;;20.90;51.40;;;;;;5108998;27;45177;-71
2023/09/27 01:57:51;;;;;;;1.75;1.63;;;20.90;51.20;;;;;;5108539;27;46740;-71
2023/09/27 02:00:18;;;;;;;1.52;1.13;;;20.90;51.40;;;;;;5108542;27;45356;-71
2023/09/27 02:02:47;;;;;;;1.33;1.10;;;20.90;51.50;;;;;;5108577;27;45350;-71
2023/09/27 02:05:14;;;;;;;1.55;1.27;;;20.80;51.20;;;;;;5108879;27;45594;-71
2023/09/27 02:07:41;;;;;;;2.78;1.40;;;20.80;51.30;;;;;;5107925;27;45419;-71
2023/09/27 02:10:09;;;;;;;1.48;1.20;;;20.80;51.30;;;;;;5107687;27;45503;-71
2023/09/27 02:12:36;;;;;;;1.85;1.20;;;20.80;51.30;;;;;;5108164;27;45271;-71
2023/09/27 02:15:05;;;;;;;1.20;1.10;;;20.80;51.30;;;;;;5108836;27;45317;-71
2023/09/27 02:17:32;;;;;;;1.08;1.08;;;20.80;51.30;;;;;;5108224;27;46943;-71
2023/09/27 02:19:59;;;;;;;1.58;1.20;;;20.80;51.30;;;;;;5108314;27;45959;-71
2023/09/27 02:22:26;;;;;;;1.48;1.10;;;20.70;51.20;;;;;;5108436;27;45326;-71
2023/09/27 02:24:54;;;;;;;1.65;1.20;;;20.70;51.10;;;;;;5108583;27;45334;-71
2023/09/27 02:27:20;;;;;;;1.30;1.20;;;20.70;51.30;;;;;;5107910;27;48441;-71
2023/09/27 02:29:47;;;;;;;1.50;1.40;;;20.70;51.30;;;;;;5108234;27;45284;-71
2023/09/27 02:32:16;;;;;;;1.10;1.00;;;20.70;51.30;;;;;;5108387;27;45622;-71
2023/09/27 02:34:44;;;;;;;1.13;0.95;;;20.70;51.40;;;;;;5108238;27;45472;-71
2023/09/27 02:37:10;;;;;;;1.48;1.10;;;20.60;51.20;;;;;;5107315;27;45888;-71
2023/09/27 02:39:38;;;;;;;2.60;1.02;;;20.60;51.30;;;;;;5108082;27;45252;-71
2023/09/27 02:42:05;;;;;;;1.02;1.00;;;20.60;51.30;;;;;;5108230;27;45422;-71
2023/09/27 02:44:32;;;;;;;1.23;1.13;;;20.60;51.50;;;;;;5108217;27;45473;-71
2023/09/27 02:46:59;;;;;;;1.88;1.10;;;20.60;51.30;;;;;;5107840;27;46994;-70
2023/09/27 02:49:27;;;;;;;1.05;1.02;;;20.60;51.40;;;;;;5107897;27;45389;-71
2023/09/27 02:51:54;;;;;;;2.50;1.20;;;20.60;51.50;;;;;;5108243;27;45420;-71
2023/09/27 02:54:21;;;;;;;1.00;1.00;;;20.50;51.40;;;;;;5107550;27;45329;-70
2023/09/27 02:56:48;;;;;;;1.40;1.30;;;20.50;51.30;;;;;;5107573;27;46343;-71
2023/09/27 02:59:15;;;;;;;1.38;1.27;;;20.50;51.40;;;;;;5107683;27;45240;-70
2023/09/27 03:01:43;;;;;;;1.40;1.30;;;20.50;51.40;;;;;;5107680;27;45387;-71
2023/09/27 03:04:10;;;;;;;1.30;1.20;;;20.50;51.40;;;;;;5107929;27;45359;-71
2023/09/27 03:06:39;;;;;;;1.00;0.98;;;20.50;51.30;;;;;;5107437;27;45468;-70
2023/09/27 03:09:08;;;;;;;1.35;1.17;;;20.50;51.50;;;;;;5108183;27;45388;-71
2023/09/27 03:11:35;;;;;;;1.25;1.10;;;20.50;51.50;;;;;;5107641;27;45319;-71
2023/09/27 03:14:02;;;;;;;1.23;1.13;;;20.40;51.30;;;;;;5107761;27;45385;-71
2023/09/27 03:16:29;;;;;;;1.88;1.08;;;20.40;51.40;;;;;;5107424;27;45574;-71
2023/09/27 03:18:56;;;;;;;0.93;0.90;;;20.40;51.40;;;;;;5107799;27;45433;-71
2023/09/27 03:21:22;;;;;;;1.60;1.00;;;20.40;51.50;;;;;;5107454;27;45303;-71
2023/09/27 03:23:53;;;;;;;1.50;1.23;;;20.40;51.20;;;;;;5107598;27;45437;-71
2023/09/27 03:26:20;;;;;;;1.30;1.17;;;20.40;51.60;;;;;;5107461;27;45592;-72
2023/09/27 03:28:52;;;;;;;1.65;1.23;;;20.30;51.30;;;;;;5107389;27;45633;-70
2023/09/27 03:31:19;;;;;;;1.00;0.93;;;20.30;51.20;;;;;;5107450;27;45309;-72
2023/09/27 03:33:46;;;;;;;2.60;1.00;;;20.30;51.20;;;;;;5107343;27;45258;-70
2023/09/27 03:36:13;;;;;;;1.30;1.15;;;20.30;51.30;;;;;;5106967;27;47748;-71
2023/09/27 03:38:40;;;;;;;1.80;1.13;;;20.30;51.30;;;;;;5107051;27;45386;-71
2023/09/27 03:41:09;;;;;;;1.27;1.00;;;20.30;51.20;;;;;;5107948;27;45398;-70
2023/09/27 03:43:36;;;;;;;1.02;0.98;;;20.30;51.40;;;;;;5107670;27;45382;-70
2023/09/27 03:46:04;;;;;;;1.33;1.23;;;20.30;51.30;;;;;;5109191;27;46328;-70
2023/09/27 03:48:31;;;;;;;1.85;1.20;;;20.20;51.00;;;;;;5111042;27;45300;-70
2023/09/27 03:50:58;;;;;;;1.77;1.38;;;20.20;51.10;;;;;;5110920;27;45241;-71
2023/09/27 03:53:25;;;;;;;1.27;0.90;;;20.20;51.10;;;;;;5111686;27;45324;-71
2023/09/27 03:55:52;;;;;;;1.00;0.90;;;20.20;51.00;;;;;;5111310;27;47460;-70
2023/09/27 03:58:20;;;;;;;1.27;1.13;;;20.20;51.10;;;;;;5111726;27;45548;-71
2023/09/27 04:00:47;;;;;;;1.30;1.20;;;20.20;51.20;;;;;;5110775;27;45381;-70
2023/09/27 04:03:15;;;;;;;1.73;1.20;;;20.20;51.00;;;;;;5111191;27;45501;-70
2023/09/27 04:05:42;;;;;;;1.30;1.15;;;20.20;51.00;;;;;;5110845;27;46555;-71
2023/09/27 04:08:11;;;;;;;1.23;1.08;;;20.20;51.00;;;;;;5110707;27;45408;-71
2023/09/27 04:10:38;;;;;;;1.40;1.20;;;20.20;51.00;;;;;;5111333;27;45342;-71
2023/09/27 04:13:05;;;;;;;1.48;1.38;;;20.20;51.00;;;;;;5111035;27;45328;-71
2023/09/27 04:15:34;;;;;;;1.27;1.13;;;20.10;50.90;;;;;;5110320;27;45739;-71
2023/09/27 04:18:01;;;;;;;1.67;1.30;;;20.10;50.90;;;;;;5110655;27;45391;-70
2023/09/27 04:20:27;;;;;;;1.10;1.00;;;20.10;51.00;;;;;;5111035;27;45303;-70
2023/09/27 04:22:54;;;;;;;1.55;1.30;;;20.10;51.00;;;;;;5110698;27;45423;-71
2023/09/27 04:25:21;;;;;;;1.35;1.20;;;20.10;50.90;;;;;;5109562;27;46300;-70
2023/09/27 04:27:49;;;;;;;1.55;1.25;;;20.10;51.50;;;;;;5109902;27;45306;-70
2023/09/27 04:30:18;;;;;;;1.33;1.23;;;20.10;50.90;;;;;;5111539;27;45322;-71
2023/09/27 04:32:48;;;;;;;1.10;1.00;;;20.00;50.90;;;;;;5111075;27;45315;-71
2023/09/27 04:35:15;;;;;;;1.35;1.20;;;20.00;50.80;;;;;;5109963;27;45446;-71
2023/09/27 04:37:42;;;;;;;1.58;1.20;;;20.00;50.90;;;;;;5110281;27;45335;-71
2023/09/27 04:40:11;;;;;;;1.30;1.20;;;20.00;50.80;;;;;;5112092;27;45324;-71
2023/09/27 04:42:37;;;;;;;1.25;1.15;;;20.00;50.80;;;;;;5110855;27;45277;-71
2023/09/27 04:45:06;;;;;;;2.58;1.30;;;20.00;51.40;;;;;;5110611;27;46371;-71
2023/09/27 04:47:33;;;;;;;1.98;1.20;;;20.00;50.80;;;;;;5110310;27;45264;-70
2023/09/27 04:50:01;;;;;;;1.33;0.85;;;20.00;50.80;;;;;;5111006;27;45236;-70
2023/09/27 04:52:28;;;;;;;2.22;1.08;;;20.00;50.70;;;;;;5111187;27;45286;-71
2023/09/27 04:54:56;;;;;;;1.85;1.33;;;20.00;50.80;;;;;;5109932;27;46746;-71
2023/09/27 04:57:23;;;;;;;4.03;1.13;;;20.00;51.40;;;;;;5111867;27;45342;-70
2023/09/27 04:59:51;;;;;;;1.40;1.30;;;19.90;50.70;;;;;;5110452;27;45346;-70
2023/09/27 05:02:18;;;;;;;1.48;1.20;;;19.90;50.70;;;;;;5110588;27;45576;-70
2023/09/27 05:04:45;;;;;;;1.60;1.30;;;19.90;50.70;;;;;;5109714;27;45454;-71
2023/09/27 05:07:13;;;;;;;1.58;1.10;;;19.90;50.70;;;;;;5110045;27;45364;-71
2023/09/27 05:09:40;;;;;;;1.35;1.08;;;19.90;50.70;;;;;;5110335;27;45405;-71
2023/09/27 05:12:07;;;;;;;2.83;1.40;;;19.90;50.70;;;;;;5109993;27;45275;-71
2023/09/27 05:14:34;;;;;;;1.63;0.95;;;19.90;50.70;;;;;;5109297;27;45356;-71
2023/09/27 05:17:01;;;;;;;1.20;1.10;;;19.90;50.70;;;;;;5111967;27;45338;-71
2023/09/27 05:19:28;;;;;;;1.48;1.20;;;19.80;50.60;;;;;;5111450;27;45286;-71
2023/09/27 05:21:54;;;;;;;1.50;1.20;;;19.80;50.60;;;;;;5110064;27;45252;-70
2023/09/27 05:24:23;;;;;;;2.80;1.27;;;19.80;50.70;;;;;;5109084;27;46949;-71
2023/09/27 05:26:51;;;;;;;1.90;1.30;;;19.80;50.70;;;;;;5109680;27;45351;-70
2023/09/27 05:29:17;;;;;;;1.20;1.10;;;19.80;50.60;;;;;;5109594;27;45229;-71
2023/09/27 05:31:44;;;;;;;1.60;1.05;;;19.80;50.60;;;;;;5109732;27;45426;-71
2023/09/27 05:34:11;;;;;;;0.88;0.80;;;19.80;50.60;;;;;;5109445;27;47360;-71
2023/09/27 05:36:40;;;;;;;2.20;1.30;;;19.80;50.60;;;;;;5109322;27;45322;-70
2023/09/27 05:39:08;;;;;;;1.20;1.02;;;19.80;50.60;;;;;;5109781;27;45286;-71
2023/09/27 05:41:37;;;;;;;1.40;1.08;;;19.70;50.60;;;;;;5109817;27;45370;-71
2023/09/27 05:44:03;;;;;;;1.20;1.10;;;19.70;50.60;;;;;;5109275;27;45408;-71
2023/09/27 05:46:32;;;;;;;2.50;1.33;;;19.70;50.60;;;;;;5109526;27;45463;-71
2023/09/27 05:49:01;;;;;;;2.17;1.13;;;19.70;50.60;;;;;;5109618;27;45393;-71
2023/09/27 05:51:30;;;;;;;1.27;1.17;;;19.70;50.60;;;;;;5109485;27;45516;-72
2023/09/27 05:53:58;;;;;;;1.35;1.20;;;19.70;50.60;;;;;;5109037;27;46541;-71
2023/09/27 05:56:25;;;;;;;1.42;1.02;;;19.70;50.60;;;;;;5108744;27;45329;-71
2023/09/27 05:58:53;;;;;;;1.50;1.20;;;19.70;50.70;;;;;;5108806;27;45196;-71
2023/09/27 06:01:20;;;;;;;1.23;1.13;;;19.70;50.70;;;;;;5108094;27;45330;-71
2023/09/27 06:03:47;;;;;;;1.38;1.27;;;19.70;50.60;;;;;;5108520;27;45481;-72
2023/09/27 06:06:14;;;;;;;3.08;1.27;;;19.70;50.60;;;;;;5108572;27;45246;-71
2023/09/27 06:08:41;;;;;;;1.10;1.00;;;19.70;50.60;;;;;;5108741;27;45318;-71
2023/09/27 06:11:09;;;;;;;1.30;0.98;;;19.70;50.70;;;;;;5107837;27;45291;-71
2023/09/27 06:13:36;;;;;;;1.75;1.20;;;19.60;50.60;;;;;;5108142;27;46721;-71
2023/09/27 06:16:08;;;;;;;1.52;1.33;;;19.60;50.60;;;;;;5108388;27;45241;-71
2023/09/27 06:18:35;;;;;;;1.23;1.10;;;19.60;50.50;;;;;;5108297;27;45375;-71
2023/09/27 06:21:04;;;;;;;1.58;1.48;;;19.60;50.60;;;;;;5109081;27;45348;-72
2023/09/27 06:23:31;;;;;;;1.33;1.20;;;19.60;50.50;;;;;;5107931;27;45431;-71
2023/09/27 06:25:58;;;;;;;1.85;1.23;;;19.60;51.10;;;;;;5108167;27;45430;-72
2023/09/27 06:28:25;;;;;;;1.02;0.93;;;19.60;50.50;;;;;;5108402;27;45331;-72
2023/09/27 06:30:52;;;;;;;3.08;1.30;;;19.60;50.50;;;;;;5108457;27;45366;-73
2023/09/27 06:33:20;;;;;;;1.30;1.20;;;19.60;50.50;;;;;;5107846;27;46458;-72
2023/09/27 06:35:47;;;;;;;2.42;1.40;;;19.60;50.50;;;;;;5108276;27;45134;-71
2023/09/27 06:38:13;;;;;;;2.95;1.40;;;19.70;50.50;;;;;;5108578;27;45390;-72
2023/09/27 06:40:41;;;;;;;3.15;1.40;;;19.70;51.00;;;;;;5108346;27;45365;-71
2023/09/27 06:43:08;;;;;;;2.88;1.33;;;19.70;51.00;;;;;;5107637;27;46714;-71
2023/09/27 06:45:36;;;;;;;1.70;1.00;;;19.70;50.40;;;;;;5108427;27;45405;-71
2023/09/27 06:48:04;;;;;;;4.53;1.40;;;19.70;50.40;;;;;;5107368;27;45370;-72
2023/09/27 06:50:33;;;;;;;2.78;1.20;;;19.70;50.40;;;;;;5108151;27;45524;-71
2023/09/27 06:52:59;;;;;;;1.38;1.27;;;19.70;50.30;;;;;;5107639;27;46364;-72
2023/09/27 06:55:26;;;;;;;1.83;1.20;;;19.70;50.30;;;;;;5107964;27;45383;-72
2023/09/27 06:57:53;;;;;;;1.88;0.90;;;19.70;50.30;;;;;;5107828;27;45313;-71
2023/09/27 07:00:29;;;;;;;1.30;1.20;;;19.70;50.30;;;;;;5107979;27;45312;-72
2023/09/27 07:02:56;;;;;;;1.40;1.20;;;19.70;50.30;;;;;;5107496;27;45425;-71
2023/09/27 07:05:23;;;;;;;3.28;1.40;;;19.80;50.30;;;;;;5107815;27;45326;-71
2023/09/27 07:07:53;;;;;;;1.13;1.08;;;19.80;50.30;;;;;;5106500;27;45304;-71
2023/09/27 07:10:20;;;;;;;1.27;1.17;;;19.80;50.30;;;;;;5108051;27;45280;-71
2023/09/27 07:12:47;;;;;;;2.47;1.35;;;19.80;50.30;;;;;;5107545;27;46636;-71
2023/09/27 07:15:14;;;;;;;2.85;1.17;;;19.80;50.20;;;;;;5107737;27;45248;-72
2023/09/27 07:17:41;;;;;;;1.73;1.35;;;19.80;50.20;;;;;;5106452;27;45353;-72
2023/09/27 07:20:17;;;;;;;1.33;1.23;;;19.80;50.20;;;;;;5107961;27;45401;-72
2023/09/27 07:22:44;;;;;;;3.08;1.45;;;19.80;50.20;;;;;;5106954;27;46456;-71
2023/09/27 07:25:16;;;;;;;2.03;1.23;;;19.80;50.20;;;;;;5107741;27;45420;-72
2023/09/27 07:27:43;;;;;;;1.40;1.27;;;19.80;50.20;;;;;;5107281;27;45248;-71
2023/09/27 07:30:11;;;;;;;2.55;1.40;;;19.80;50.20;;;;;;5107898;27;45287;-72
2023/09/27 07:32:39;;;;;;;1.50;1.13;;;19.80;50.20;;;;;;5104676;27;45572;-72
2023/09/27 07:35:10;;;;;;;3.17;1.48;;;19.80;50.20;;;;;;5106878;27;45443;-71
2023/09/27 07:37:37;;;;;;;1.48;1.38;;;19.80;50.20;;;;;;5107491;27;45501;-71
2023/09/27 07:40:11;;;;;;;1.88;1.30;;;19.90;50.20;;;;;;5106748;27;45575;-71
2023/09/27 07:42:41;;;;;;;3.92;1.10;;;19.90;50.20;;;;;;5106253;27;46660;-71
2023/09/27 07:45:20;;;;;;;2.42;1.60;;;19.90;50.20;;;;;;5106751;27;45304;-71
2023/09/27 07:47:48;;;;;;;2.58;1.45;;;19.90;50.10;;;;;;5105495;27;45363;-71
2023/09/27 07:50:15;;;;;;;2.60;1.30;;;19.90;50.10;;;;;;5107366;27;45327;-71
2023/09/27 07:52:42;;;;;;;1.58;1.20;;;19.90;50.10;;;;;;5106709;27;46677;-73
2023/09/27 07:55:11;;;;;;;1.95;1.60;;;19.90;50.10;;;;;;5107184;27;45305;-73
2023/09/27 07:57:43;;;;;;;8.15;2.45;;;19.90;50.70;;;;;;5107712;27;45316;-73
2023/09/27 08:00:18;;;;;;;3.28;1.75;;;19.90;51.10;;;;;;5107510;27;45628;-73
2023/09/27 08:02:45;;;;;;;2.25;1.60;;;19.90;51.40;;;;;;5106461;27;45336;-72
2023/09/27 08:05:16;;;;;;;2.75;1.52;;;19.90;51.40;;;;;;5106652;27;45489;-71
2023/09/27 08:07:44;;;;;;;2.88;1.80;;;20.00;51.40;;;;;;5105827;27;45358;-71
2023/09/27 08:10:11;;;;;;;3.45;1.60;;;20.00;52.10;;;;;;5107369;27;45496;-71
2023/09/27 08:12:40;;;;;;;2.58;1.67;;;20.00;51.70;;;;;;5106925;27;45414;-71
2023/09/27 08:15:08;;;;;;;2.33;1.55;;;20.00;51.70;;;;;;5106949;27;45261;-71
2023/09/27 08:17:35;;;;;;;1.95;1.70;;;20.00;51.70;;;;;;5106945;27;45681;-71
2023/09/27 08:20:09;;;;;;;1.85;1.60;;;20.00;51.80;;;;;;5107077;27;45307;-70
2023/09/27 08:22:38;;;;;;;2.03;1.60;;;20.00;51.80;;;;;;5106572;27;47908;-71
2023/09/27 08:25:08;;;;;;;2.65;1.70;;;20.00;51.60;;;;;;5106591;27;45269;-71
2023/09/27 08:27:35;;;;;;;2.65;1.80;;;20.10;51.80;;;;;;5106812;27;45294;-70
2023/09/27 08:30:05;;;;;;;4.50;1.80;;;20.10;52.10;;;;;;5106728;27;45420;-71
2023/09/27 08:32:33;;;;;;;3.63;1.73;;;20.10;52.20;;;;;;5106639;27;45306;-71
2023/09/27 08:35:00;;;;;;;5.97;1.63;;;20.10;52.10;;;;;;5108732;27;45408;-70
2023/09/27 08:37:28;;;;;;;2.08;1.55;;;20.10;52.00;;;;;;5110250;27;45360;-70
2023/09/27 08:39:55;;;;;;;1.83;1.42;;;20.20;51.90;;;;;;5110415;27;45322;-71
2023/09/27 08:42:22;;;;;;;1.48;1.38;;;20.20;51.60;;;;;;5109134;27;45585;-70
2023/09/27 08:44:49;;;;;;;2.15;1.48;;;20.20;51.90;;;;;;5109981;27;45961;-71
2023/09/27 08:47:18;;;;;;;2.33;1.58;;;20.20;52.00;;;;;;5110043;27;45376;-71
2023/09/27 08:49:44;;;;;;;1.98;1.63;;;20.30;52.40;;;;;;5110136;27;45346;-70
2023/09/27 08:52:11;;;;;;;1.70;1.60;;;20.30;52.20;;;;;;5109689;27;46713;-71
2023/09/27 08:54:38;;;;;;;3.30;1.73;;;20.30;52.40;;;;;;5109867;27;45243;-71
2023/09/27 08:57:05;;;;;;;5.25;2.00;;;20.30;52.10;;;;;;5109652;27;45478;-71
2023/09/27 08:59:32;;;;;;;2.90;1.80;;;20.30;51.80;;;;;;5109744;27;45541;-71
2023/09/27 09:01:59;;;;;;;2.90;1.48;;;20.40;51.80;;;;;;5109232;27;45566;-71
2023/09/27 09:04:27;;;;;;;2.03;1.63;;;20.40;51.70;;;;;;5108928;27;45321;-71
2023/09/27 09:06:55;;;;;;;2.10;1.35;;;20.40;51.60;;;;;;5109171;27;45194;-71
2023/09/27 09:09:25;;;;;;;2.47;1.50;;;20.50;51.40;;;;;;5109511;27;45274;-71
2023/09/27 09:11:56;;;;;;;1.90;1.70;;;20.50;51.40;;;;;;5109319;27;48939;-72
2023/09/27 09:14:37;;;;;;;2.45;1.73;;;20.50;51.20;;;;;;5109268;27;45386;-71
2023/09/27 09:17:04;;;;;;;3.38;1.63;;;20.50;51.10;;;;;;5109610;27;45175;-71
2023/09/27 09:19:32;;;;;;;2.55;1.40;;;20.60;51.10;;;;;;5109605;27;45481;-72
2023/09/27 09:22:08;;;;;;;3.58;1.50;;;20.60;50.90;;;;;;5110528;27;45292;-74
2023/09/27 09:24:36;;;;;;;3.05;1.58;;;20.60;51.00;;;;;;5110376;27;45340;-73
2023/09/27 09:27:08;;;;;;;1.63;1.52;;;20.70;51.20;;;;;;5111108;27;45219;-74
2023/09/27 09:30:09;;;;;;;2.08;1.60;;;20.70;51.20;;;;;;5113360;27;45231;-77
2023/09/27 09:32:41;;;;;;;4.30;1.50;;;20.80;51.60;;;;;;5107068;27;45344;-71
2023/09/27 09:35:10;;;;;;;2.05;1.60;;;20.80;51.40;;;;;;5109814;27;45172;-71
2023/09/27 09:40:34;;;;;;;3.63;1.70;;;20.90;51.00;;;;;;5107336;27;45332;-72
2023/09/27 09:43:01;;;;;;;5.03;1.65;;;21.00;50.80;;;;;;5108676;27;46719;-72
2023/09/27 09:45:28;;;;;;;2.63;1.80;;;21.10;50.70;;;;;;5109112;27;45136;-71
2023/09/27 09:47:56;;;;;;;1.40;1.30;;;21.10;50.40;;;;;;5109367;27;45255;-70
2023/09/27 09:50:25;;;;;;;2.33;1.60;;;21.10;50.40;;;;;;5109241;27;45296;-71
2023/09/27 09:52:57;;;;;;;2.58;1.70;;;21.10;50.40;;;;;;5108923;27;47518;-71
2023/09/27 09:55:25;;;;;;;2.30;1.65;;;21.20;50.30;;;;;;5108857;27;45297;-71
2023/09/27 09:57:57;;;;;;;3.05;1.60;;;21.20;50.60;;;;;;5108737;27;45283;-71
2023/09/27 10:00:27;;;;;;;1.85;1.40;;;21.20;50.70;;;;;;5108326;27;45563;-71
2023/09/27 10:03:04;;;;;;;2.10;1.45;;;21.30;51.00;;;;;;5107912;27;45374;-72
2023/09/27 10:05:37;;;;;;;1.52;1.42;;;21.30;51.10;;;;;;5107992;27;45380;-71
2023/09/27 10:08:05;;;;;;;2.15;1.50;;;21.40;50.90;;;;;;5108273;27;45315;-71
2023/09/27 10:10:32;;;;;;;4.20;1.60;;;21.50;50.80;;;;;;5109226;27;45269;-71
2023/09/27 10:12:59;;;;;;;2.33;1.50;;;21.50;50.70;;;;;;5108499;27;46328;-72
2023/09/27 10:15:26;;;;;;;3.13;1.58;;;21.60;50.50;;;;;;5107547;27;45682;-73
2023/09/27 10:17:55;;;;;;;3.47;1.67;;;21.60;50.80;;;;;;5109072;27;45175;-73
2023/09/27 10:20:22;;;;;;;3.50;1.67;;;21.60;50.80;;;;;;5108959;27;45369;-73
2023/09/27 10:22:51;;;;;;;2.20;1.70;;;21.70;50.80;;;;;;5108307;27;46561;-73
2023/09/27 10:25:34;;;;;;;2.70;1.35;;;21.70;50.80;;;;;;5108460;27;45334;-72
2023/09/27 10:28:12;;;;;;;4.28;1.67;;;21.80;50.70;;;;;;5108852;27;45312;-72
2023/09/27 10:31:04;;;;;;;2.67;2.10;;;21.90;50.70;;;;;;5108102;27;45376;-72
2023/09/27 10:33:31;;;;;;;2.50;1.50;;;21.90;51.10;;;;;;5108086;27;46741;-72
2023/09/27 10:36:29;;;;;;;2.45;1.40;;;22.00;51.30;;;;;;5108295;27;45382;-72
2023/09/27 10:39:05;;;;;;;5.43;1.83;;;22.10;51.10;;;;;;5108478;27;45302;-72
2023/09/27 10:41:46;;;;;;;1.75;1.50;;;22.20;51.10;;;;;;5108609;27;45483;-73
2023/09/27 10:44:13;;;;;;;1.70;1.58;;;22.30;51.10;;;;;;5108855;27;45335;-75
2023/09/27 10:46:41;;;;;;;3.38;1.60;;;22.30;50.60;;;;;;5108934;27;45422;-73
2023/09/27 10:49:08;;;;;;;3.00;1.98;;;22.50;50.80;;;;;;5108190;27;45538;-72
2023/09/27 10:51:35;;;;;;;3.95;1.73;;;22.60;50.70;;;;;;5107437;27;45372;-71
2023/09/27 10:54:08;;;;;;;3.05;2.08;;;22.60;50.70;;;;;;5108244;27;45418;-73
2023/09/27 10:56:35;;;;;;;3.90;1.77;;;22.70;50.30;;;;;;5107398;27;45332;-77
2023/09/27 10:59:03;;;;;;;2.45;1.40;;;22.80;50.20;;;;;;5108392;27;45133;-72
2023/09/27 11:01:31;;;;;;;2.03;1.50;;;22.90;50.30;;;;;;5108247;27;45200;-73
2023/09/27 11:03:58;;;;;;;1.60;1.50;;;23.10;50.00;;;;;;5105070;27;45639;-72
2023/09/27 11:06:25;;;;;;;3.42;1.80;;;23.20;49.50;;;;;;5089917;27;45284;-72
2023/09/27 11:08:52;;;;;;;5.07;1.63;;;23.20;49.30;;;;;;5087310;28;45296;-72
2023/09/27 11:11:20;;;;;;;2.45;1.40;;;23.40;49.30;;;;;;5094934;27;45248;-72
2023/09/27 11:13:47;;;;;;;2.80;1.95;;;23.50;49.30;;;;;;5101157;27;47025;-72
2023/09/27 11:16:15;;;;;;;2.97;1.90;;;23.70;48.90;;;;;;5095202;27;45351;-72
2023/09/27 11:18:44;;;;;;;3.67;1.73;;;23.80;48.70;;;;;;5106482;27;45297;-72
2023/09/27 11:21:11;;;;;;;4.50;1.70;;;23.90;48.20;;;;;;5107591;27;45573;-73
2023/09/27 11:23:54;;;;;;;2.25;1.65;;;23.90;47.40;;;;;;5106236;27;45354;-72
2023/09/27 11:26:22;;;;;;;3.00;1.83;;;24.10;47.10;;;;;;5102815;27;45365;-71
2023/09/27 11:28:57;;;;;;;2.42;1.65;;;24.10;47.00;;;;;;5086667;27;45359;-71
2023/09/27 11:31:24;;;;;;;5.07;1.75;;;24.30;46.90;;;;;;5099062;27;45351;-73
2023/09/27 11:33:52;;;;;;;2.55;1.58;;;24.40;46.40;;;;;;5105869;27;46731;-68
2023/09/27 11:36:18;;;;;;;2.55;1.60;;;24.50;45.70;;;;;;5106779;27;45253;-71
2023/09/27 11:38:49;;;;;;;2.63;1.80;;;24.50;45.50;;;;;;5106859;27;45260;-73
2023/09/27 11:41:16;;;;;;;2.00;1.73;;;24.60;45.30;;;;;;5102075;27;45232;-71
2023/09/27 11:43:45;;;;;;;2.35;2.05;;;24.60;45.00;;;;;;5088346;27;46721;-70
2023/09/27 11:46:12;;;;;;;2.05;1.60;;;24.70;44.80;;;;;;5109358;27;45686;-71
2023/09/27 11:48:39;;;;;;;3.05;1.83;;;24.80;44.60;;;;;;5107106;27;45346;-72
2023/09/27 11:51:06;;;;;;;2.63;1.50;;;25.00;44.60;;;;;;5105391;27;45415;-71
2023/09/27 11:53:33;;;;;;;1.98;1.60;;;25.10;44.30;;;;;;5101796;27;46640;-71
2023/09/27 11:56:00;;;;;;;3.40;2.08;;;25.20;43.40;;;;;;5103847;27;45209;-72
2023/09/27 11:58:27;;;;;;;2.38;1.90;;;25.20;43.30;;;;;;5090707;27;45328;-73
2023/09/27 12:00:56;;;;;;;5.03;1.80;;;25.20;43.70;;;;;;5087723;27;45721;-69
2023/09/27 12:03:23;;;;;;;4.05;2.15;;;25.30;43.90;;;;;;5107939;27;45476;-71
2023/09/27 12:05:50;;;;;;;8.02;1.90;;;25.40;43.70;;;;;;5110364;27;45600;-73
2023/09/27 12:08:17;;;;;;;3.08;1.58;;;25.30;43.10;;;;;;5110766;27;45344;-73
2023/09/27 12:10:44;;;;;;;5.28;1.92;;;25.40;43.10;;;;;;5112088;27;45358;-70
2023/09/27 12:13:11;;;;;;;6.10;1.90;;;25.50;43.10;;;;;;5114780;27;45445;-70
2023/09/27 12:15:38;;;;;;;4.18;2.00;;;25.60;43.20;;;;;;5115245;27;45280;-70
2023/09/27 12:18:07;;;;;;;2.00;1.50;;;25.80;42.60;;;;;;5114309;27;45141;-72
2023/09/27 12:20:33;;;;;;;3.30;1.83;;;25.80;42.50;;;;;;5111418;27;45415;-70
2023/09/27 12:23:00;;;;;;;2.83;1.83;;;25.80;42.20;;;;;;5110181;27;46656;-70
2023/09/27 12:25:27;;;;;;;2.70;1.58;;;25.80;41.50;;;;;;5110097;27;45318;-71
2023/09/27 12:27:54;;;;;;;2.60;1.92;;;25.80;41.50;;;;;;5110799;27;45311;-70
2023/09/27 12:30:21;;;;;;;2.03;1.70;;;25.90;41.60;;;;;;5109530;27;45329;-70
2023/09/27 12:32:48;;;;;;;2.00;1.65;;;26.10;41.50;;;;;;5107045;27;45434;-72
2023/09/27 12:35:17;;;;;;;3.00;1.70;;;26.10;40.40;;;;;;5110383;27;45400;-71
2023/09/27 12:37:44;;;;;;;2.15;1.60;;;26.20;40.20;;;;;;5109892;27;45402;-72
2023/09/27 12:40:12;;;;;;;2.50;1.80;;;26.30;40.00;;;;;;5109990;27;45536;-73
2023/09/27 12:42:39;;;;;;;2.45;1.67;;;26.30;39.90;;;;;;5109741;27;45361;-72
2023/09/27 12:45:07;;;;;;;2.17;1.58;;;26.40;40.00;;;;;;5109770;27;45276;-73
2023/09/27 12:47:34;;;;;;;3.63;1.50;;;26.60;40.20;;;;;;5109825;27;45264;-73
2023/09/27 12:50:03;;;;;;;2.42;1.88;;;26.70;40.10;;;;;;5109982;27;45409;-74
2023/09/27 12:52:31;;;;;;;2.03;1.65;;;26.80;39.90;;;;;;5108863;27;46513;-72
2023/09/27 12:54:58;;;;;;;2.55;1.48;;;26.90;39.90;;;;;;5109203;27;45253;-74